sensor_id;sensor_type;location;lat;lon;timestamp;P1;durP1;ratioP1;P2;durP2;ratioP2
24279;SDS011;12395;42.808;23.408;2023-08-31T00:00:39;2.63;;;1.55;;
24279;SDS011;12395;42.808;23.408;2023-08-31T00:03:06;4.28;;;1.30;;
24279;SDS011;12395;42.808;23.408;2023-08-31T00:05:31;2.15;;;1.55;;
24279;SDS011;12395;42.808;23.408;2023-08-31T00:07:57;4.65;;;1.48;;
24279;SDS011;12395;42.808;23.408;2023-08-31T00:10:22;3.40;;;1.70;;
24279;SDS011;12395;42.808;23.408;2023-08-31T00:12:48;3.78;;;1.55;;
24279;SDS011;12395;42.808;23.408;2023-08-31T00:15:14;2.53;;;1.55;;
24279;SDS011;12395;42.808;23.408;2023-08-31T00:17:40;3.35;;;1.77;;
24279;SDS011;12395;42.808;23.408;2023-08-31T00:20:06;3.08;;;1.58;;
24279;SDS011;12395;42.808;23.408;2023-08-31T00:22:36;3.33;;;1.60;;
24279;SDS011;12395;42.808;23.408;2023-08-31T00:25:03;4.43;;;1.67;;
24279;SDS011;12395;42.808;23.408;2023-08-31T00:27:31;3.38;;;1.80;;
24279;SDS011;12395;42.808;23.408;2023-08-31T00:29:56;2.35;;;1.50;;
24279;SDS011;12395;42.808;23.408;2023-08-31T00:32:22;4.38;;;1.35;;
24279;SDS011;12395;42.808;23.408;2023-08-31T00:34:48;1.75;;;1.23;;
24279;SDS011;12395;42.808;23.408;2023-08-31T00:37:14;2.50;;;1.20;;
24279;SDS011;12395;42.808;23.408;2023-08-31T00:39:40;3.17;;;1.60;;
24279;SDS011;12395;42.808;23.408;2023-08-31T00:42:05;4.88;;;1.40;;
24279;SDS011;12395;42.808;23.408;2023-08-31T00:44:30;2.40;;;1.50;;
24279;SDS011;12395;42.808;23.408;2023-08-31T00:46:56;4.30;;;1.23;;
24279;SDS011;12395;42.808;23.408;2023-08-31T00:49:21;4.10;;;1.45;;
24279;SDS011;12395;42.808;23.408;2023-08-31T00:51:47;3.22;;;1.60;;
24279;SDS011;12395;42.808;23.408;2023-08-31T00:54:15;4.28;;;1.25;;
24279;SDS011;12395;42.808;23.408;2023-08-31T00:56:41;2.38;;;1.17;;
24279;SDS011;12395;42.808;23.408;2023-08-31T00:59:07;5.13;;;1.27;;
24279;SDS011;12395;42.808;23.408;2023-08-31T01:01:36;3.05;;;1.15;;
24279;SDS011;12395;42.808;23.408;2023-08-31T01:07:04;3.75;;;1.55;;
24279;SDS011;12395;42.808;23.408;2023-08-31T01:09:46;2.78;;;1.10;;
24279;SDS011;12395;42.808;23.408;2023-08-31T01:15:12;3.15;;;1.40;;
24279;SDS011;12395;42.808;23.408;2023-08-31T01:17:43;2.53;;;1.20;;
24279;SDS011;12395;42.808;23.408;2023-08-31T01:20:11;4.88;;;1.55;;
24279;SDS011;12395;42.808;23.408;2023-08-31T01:22:50;2.90;;;1.33;;
24279;SDS011;12395;42.808;23.408;2023-08-31T01:25:20;2.33;;;1.35;;
24279;SDS011;12395;42.808;23.408;2023-08-31T01:27:46;3.45;;;1.30;;
24279;SDS011;12395;42.808;23.408;2023-08-31T01:30:12;2.47;;;1.30;;
24279;SDS011;12395;42.808;23.408;2023-08-31T01:32:37;4.88;;;1.60;;
24279;SDS011;12395;42.808;23.408;2023-08-31T01:35:10;3.33;;;1.20;;
24279;SDS011;12395;42.808;23.408;2023-08-31T01:40:18;3.08;;;1.30;;
24279;SDS011;12395;42.808;23.408;2023-08-31T01:42:50;4.22;;;1.30;;
24279;SDS011;12395;42.808;23.408;2023-08-31T01:45:18;3.88;;;1.42;;
24279;SDS011;12395;42.808;23.408;2023-08-31T01:47:46;3.88;;;1.58;;
24279;SDS011;12395;42.808;23.408;2023-08-31T01:50:11;1.70;;;0.93;;
24279;SDS011;12395;42.808;23.408;2023-08-31T01:52:37;2.45;;;1.13;;
24279;SDS011;12395;42.808;23.408;2023-08-31T01:55:03;5.68;;;1.33;;
24279;SDS011;12395;42.808;23.408;2023-08-31T01:57:29;3.65;;;1.40;;
24279;SDS011;12395;42.808;23.408;2023-08-31T01:59:54;3.08;;;1.20;;
24279;SDS011;12395;42.808;23.408;2023-08-31T02:02:20;3.22;;;1.40;;
24279;SDS011;12395;42.808;23.408;2023-08-31T02:04:46;4.63;;;1.33;;
24279;SDS011;12395;42.808;23.408;2023-08-31T02:07:11;3.25;;;1.40;;
24279;SDS011;12395;42.808;23.408;2023-08-31T02:09:36;4.90;;;1.80;;
24279;SDS011;12395;42.808;23.408;2023-08-31T02:12:02;3.50;;;1.50;;
24279;SDS011;12395;42.808;23.408;2023-08-31T02:14:29;2.65;;;1.50;;
24279;SDS011;12395;42.808;23.408;2023-08-31T02:16:55;4.18;;;1.50;;
24279;SDS011;12395;42.808;23.408;2023-08-31T02:19:20;3.13;;;1.45;;
24279;SDS011;12395;42.808;23.408;2023-08-31T02:21:45;2.55;;;1.20;;
24279;SDS011;12395;42.808;23.408;2023-08-31T02:24:11;2.63;;;1.63;;
24279;SDS011;12395;42.808;23.408;2023-08-31T02:26:36;3.78;;;1.42;;
24279;SDS011;12395;42.808;23.408;2023-08-31T02:29:04;3.38;;;1.60;;
24279;SDS011;12395;42.808;23.408;2023-08-31T02:31:30;3.15;;;1.40;;
24279;SDS011;12395;42.808;23.408;2023-08-31T02:33:55;3.30;;;1.40;;
24279;SDS011;12395;42.808;23.408;2023-08-31T02:36:21;2.72;;;1.25;;
24279;SDS011;12395;42.808;23.408;2023-08-31T02:38:46;4.93;;;1.38;;
24279;SDS011;12395;42.808;23.408;2023-08-31T02:41:12;2.60;;;1.35;;
24279;SDS011;12395;42.808;23.408;2023-08-31T02:43:40;2.45;;;1.20;;
24279;SDS011;12395;42.808;23.408;2023-08-31T02:46:09;4.22;;;1.40;;
24279;SDS011;12395;42.808;23.408;2023-08-31T02:48:34;3.17;;;1.30;;
24279;SDS011;12395;42.808;23.408;2023-08-31T02:50:59;3.08;;;1.30;;
24279;SDS011;12395;42.808;23.408;2023-08-31T02:53:26;3.50;;;1.30;;
24279;SDS011;12395;42.808;23.408;2023-08-31T02:55:52;2.27;;;1.27;;
24279;SDS011;12395;42.808;23.408;2023-08-31T02:58:18;4.30;;;1.38;;
24279;SDS011;12395;42.808;23.408;2023-08-31T03:00:44;3.33;;;1.30;;
24279;SDS011;12395;42.808;23.408;2023-08-31T03:03:13;3.92;;;1.40;;
24279;SDS011;12395;42.808;23.408;2023-08-31T03:05:41;1.48;;;1.10;;
24279;SDS011;12395;42.808;23.408;2023-08-31T03:08:06;2.78;;;1.20;;
24279;SDS011;12395;42.808;23.408;2023-08-31T03:10:32;5.32;;;1.33;;
24279;SDS011;12395;42.808;23.408;2023-08-31T03:12:57;2.70;;;1.20;;
24279;SDS011;12395;42.808;23.408;2023-08-31T03:15:23;2.65;;;1.20;;
24279;SDS011;12395;42.808;23.408;2023-08-31T03:17:48;4.28;;;1.10;;
24279;SDS011;12395;42.808;23.408;2023-08-31T03:20:14;2.72;;;1.20;;
24279;SDS011;12395;42.808;23.408;2023-08-31T03:22:39;5.57;;;1.17;;
24279;SDS011;12395;42.808;23.408;2023-08-31T03:25:05;4.78;;;1.20;;
24279;SDS011;12395;42.808;23.408;2023-08-31T03:27:30;3.05;;;1.33;;
24279;SDS011;12395;42.808;23.408;2023-08-31T03:29:56;3.05;;;1.20;;
24279;SDS011;12395;42.808;23.408;2023-08-31T03:32:21;3.63;;;1.10;;
24279;SDS011;12395;42.808;23.408;2023-08-31T03:34:46;2.28;;;1.42;;
24279;SDS011;12395;42.808;23.408;2023-08-31T03:37:12;2.38;;;1.02;;
24279;SDS011;12395;42.808;23.408;2023-08-31T03:39:38;2.97;;;1.40;;
24279;SDS011;12395;42.808;23.408;2023-08-31T03:42:05;4.68;;;1.70;;
24279;SDS011;12395;42.808;23.408;2023-08-31T03:44:30;3.00;;;1.42;;
24279;SDS011;12395;42.808;23.408;2023-08-31T03:46:56;1.75;;;1.15;;
24279;SDS011;12395;42.808;23.408;2023-08-31T03:49:21;3.70;;;1.30;;
24279;SDS011;12395;42.808;23.408;2023-08-31T03:51:46;4.07;;;1.27;;
24279;SDS011;12395;42.808;23.408;2023-08-31T03:54:12;4.95;;;1.20;;
24279;SDS011;12395;42.808;23.408;2023-08-31T03:56:38;2.80;;;1.30;;
24279;SDS011;12395;42.808;23.408;2023-08-31T03:59:03;1.80;;;1.20;;
24279;SDS011;12395;42.808;23.408;2023-08-31T04:01:29;3.30;;;1.50;;
24279;SDS011;12395;42.808;23.408;2023-08-31T04:03:55;3.28;;;1.20;;
24279;SDS011;12395;42.808;23.408;2023-08-31T04:06:21;3.10;;;1.50;;
24279;SDS011;12395;42.808;23.408;2023-08-31T04:08:46;2.97;;;1.13;;
24279;SDS011;12395;42.808;23.408;2023-08-31T04:11:11;3.75;;;1.23;;
24279;SDS011;12395;42.808;23.408;2023-08-31T04:13:37;2.58;;;1.20;;
24279;SDS011;12395;42.808;23.408;2023-08-31T04:16:02;2.95;;;1.10;;
24279;SDS011;12395;42.808;23.408;2023-08-31T04:18:28;4.07;;;1.23;;
24279;SDS011;12395;42.808;23.408;2023-08-31T04:20:54;2.20;;;1.25;;
24279;SDS011;12395;42.808;23.408;2023-08-31T04:23:19;4.22;;;1.40;;
24279;SDS011;12395;42.808;23.408;2023-08-31T04:25:46;2.85;;;1.17;;
24279;SDS011;12395;42.808;23.408;2023-08-31T04:28:12;4.10;;;1.48;;
24279;SDS011;12395;42.808;23.408;2023-08-31T04:30:41;3.10;;;1.25;;
24279;SDS011;12395;42.808;23.408;2023-08-31T04:33:07;3.00;;;1.20;;
24279;SDS011;12395;42.808;23.408;2023-08-31T04:35:32;2.22;;;1.25;;
24279;SDS011;12395;42.808;23.408;2023-08-31T04:37:58;4.05;;;1.27;;
24279;SDS011;12395;42.808;23.408;2023-08-31T04:40:24;3.05;;;1.25;;
24279;SDS011;12395;42.808;23.408;2023-08-31T04:42:50;2.95;;;1.20;;
24279;SDS011;12395;42.808;23.408;2023-08-31T04:45:16;1.92;;;1.27;;
24279;SDS011;12395;42.808;23.408;2023-08-31T04:47:41;3.13;;;1.40;;
24279;SDS011;12395;42.808;23.408;2023-08-31T04:50:07;3.88;;;1.60;;
24279;SDS011;12395;42.808;23.408;2023-08-31T04:52:33;3.25;;;1.25;;
24279;SDS011;12395;42.808;23.408;2023-08-31T04:55:01;1.98;;;1.30;;
24279;SDS011;12395;42.808;23.408;2023-08-31T04:57:30;1.98;;;1.23;;
24279;SDS011;12395;42.808;23.408;2023-08-31T04:59:55;3.65;;;1.38;;
24279;SDS011;12395;42.808;23.408;2023-08-31T05:02:20;3.63;;;1.50;;
24279;SDS011;12395;42.808;23.408;2023-08-31T05:04:46;3.40;;;1.23;;
24279;SDS011;12395;42.808;23.408;2023-08-31T05:07:11;2.50;;;1.40;;
24279;SDS011;12395;42.808;23.408;2023-08-31T05:09:37;2.60;;;1.25;;
24279;SDS011;12395;42.808;23.408;2023-08-31T05:12:02;2.00;;;1.42;;
24279;SDS011;12395;42.808;23.408;2023-08-31T05:14:28;3.97;;;1.25;;
24279;SDS011;12395;42.808;23.408;2023-08-31T05:16:53;3.55;;;1.30;;
24279;SDS011;12395;42.808;23.408;2023-08-31T05:19:19;4.40;;;1.60;;
24279;SDS011;12395;42.808;23.408;2023-08-31T05:21:44;4.00;;;1.50;;
24279;SDS011;12395;42.808;23.408;2023-08-31T05:24:10;3.40;;;1.40;;
24279;SDS011;12395;42.808;23.408;2023-08-31T05:26:35;6.45;;;2.00;;
24279;SDS011;12395;42.808;23.408;2023-08-31T05:29:01;4.13;;;2.20;;
24279;SDS011;12395;42.808;23.408;2023-08-31T05:31:29;3.03;;;1.58;;
24279;SDS011;12395;42.808;23.408;2023-08-31T05:33:55;4.75;;;1.70;;
24279;SDS011;12395;42.808;23.408;2023-08-31T05:36:20;5.65;;;2.30;;
24279;SDS011;12395;42.808;23.408;2023-08-31T05:38:46;5.10;;;2.35;;
24279;SDS011;12395;42.808;23.408;2023-08-31T05:41:11;8.52;;;2.85;;
24279;SDS011;12395;42.808;23.408;2023-08-31T05:43:37;5.75;;;2.92;;
24279;SDS011;12395;42.808;23.408;2023-08-31T05:46:05;7.05;;;3.05;;
24279;SDS011;12395;42.808;23.408;2023-08-31T05:48:31;5.68;;;3.05;;
24279;SDS011;12395;42.808;23.408;2023-08-31T05:50:56;7.18;;;3.22;;
24279;SDS011;12395;42.808;23.408;2023-08-31T05:53:22;7.40;;;2.90;;
24279;SDS011;12395;42.808;23.408;2023-08-31T05:55:48;5.05;;;3.00;;
24279;SDS011;12395;42.808;23.408;2023-08-31T05:58:14;6.30;;;2.78;;
24279;SDS011;12395;42.808;23.408;2023-08-31T06:00:39;8.13;;;2.70;;
24279;SDS011;12395;42.808;23.408;2023-08-31T06:03:04;6.25;;;3.00;;
24279;SDS011;12395;42.808;23.408;2023-08-31T06:05:31;8.13;;;2.83;;
24279;SDS011;12395;42.808;23.408;2023-08-31T06:08:00;6.18;;;3.00;;
24279;SDS011;12395;42.808;23.408;2023-08-31T06:10:26;4.82;;;2.45;;
24279;SDS011;12395;42.808;23.408;2023-08-31T06:12:51;5.00;;;2.53;;
24279;SDS011;12395;42.808;23.408;2023-08-31T06:15:16;5.85;;;2.50;;
24279;SDS011;12395;42.808;23.408;2023-08-31T06:17:52;6.03;;;2.67;;
24279;SDS011;12395;42.808;23.408;2023-08-31T06:20:18;4.20;;;2.30;;
24279;SDS011;12395;42.808;23.408;2023-08-31T06:22:43;6.03;;;2.53;;
24279;SDS011;12395;42.808;23.408;2023-08-31T06:25:09;6.25;;;2.47;;
24279;SDS011;12395;42.808;23.408;2023-08-31T06:27:36;4.80;;;2.13;;
24279;SDS011;12395;42.808;23.408;2023-08-31T06:30:01;4.32;;;2.05;;
24279;SDS011;12395;42.808;23.408;2023-08-31T06:32:27;3.40;;;1.83;;
24279;SDS011;12395;42.808;23.408;2023-08-31T06:34:56;3.97;;;2.17;;
24279;SDS011;12395;42.808;23.408;2023-08-31T06:37:22;5.38;;;2.30;;
24279;SDS011;12395;42.808;23.408;2023-08-31T06:39:47;5.68;;;2.15;;
24279;SDS011;12395;42.808;23.408;2023-08-31T06:42:12;7.43;;;2.03;;
24279;SDS011;12395;42.808;23.408;2023-08-31T06:44:38;5.90;;;2.17;;
24279;SDS011;12395;42.808;23.408;2023-08-31T06:47:03;5.10;;;2.13;;
24279;SDS011;12395;42.808;23.408;2023-08-31T06:49:29;5.85;;;2.17;;
24279;SDS011;12395;42.808;23.408;2023-08-31T06:51:57;7.03;;;2.38;;
24279;SDS011;12395;42.808;23.408;2023-08-31T06:54:23;5.53;;;2.30;;
24279;SDS011;12395;42.808;23.408;2023-08-31T06:56:49;5.93;;;2.25;;
24279;SDS011;12395;42.808;23.408;2023-08-31T06:59:16;4.97;;;2.35;;
24279;SDS011;12395;42.808;23.408;2023-08-31T07:01:42;9.02;;;2.35;;
24279;SDS011;12395;42.808;23.408;2023-08-31T07:04:07;5.70;;;2.25;;
24279;SDS011;12395;42.808;23.408;2023-08-31T07:06:34;3.15;;;1.92;;
24279;SDS011;12395;42.808;23.408;2023-08-31T07:09:00;6.07;;;2.38;;
24279;SDS011;12395;42.808;23.408;2023-08-31T07:11:30;5.88;;;2.00;;
24279;SDS011;12395;42.808;23.408;2023-08-31T07:13:55;6.07;;;2.15;;
24279;SDS011;12395;42.808;23.408;2023-08-31T07:16:22;3.63;;;2.15;;
24279;SDS011;12395;42.808;23.408;2023-08-31T07:18:48;6.70;;;2.40;;
24279;SDS011;12395;42.808;23.408;2023-08-31T07:21:13;4.22;;;2.00;;
24279;SDS011;12395;42.808;23.408;2023-08-31T07:23:38;4.80;;;1.90;;
24279;SDS011;12395;42.808;23.408;2023-08-31T07:26:04;5.43;;;1.88;;
24279;SDS011;12395;42.808;23.408;2023-08-31T07:28:30;3.45;;;1.88;;
24279;SDS011;12395;42.808;23.408;2023-08-31T07:31:05;2.72;;;1.75;;
24279;SDS011;12395;42.808;23.408;2023-08-31T07:33:31;4.82;;;1.80;;
24279;SDS011;12395;42.808;23.408;2023-08-31T07:35:58;3.80;;;1.63;;
24279;SDS011;12395;42.808;23.408;2023-08-31T07:38:24;3.70;;;2.00;;
24279;SDS011;12395;42.808;23.408;2023-08-31T07:40:51;4.47;;;1.52;;
24279;SDS011;12395;42.808;23.408;2023-08-31T07:43:16;5.68;;;1.67;;
24279;SDS011;12395;42.808;23.408;2023-08-31T07:45:44;2.90;;;1.50;;
24279;SDS011;12395;42.808;23.408;2023-08-31T07:48:10;3.15;;;1.80;;
24279;SDS011;12395;42.808;23.408;2023-08-31T07:50:35;4.78;;;1.90;;
24279;SDS011;12395;42.808;23.408;2023-08-31T07:53:01;5.65;;;1.55;;
24279;SDS011;12395;42.808;23.408;2023-08-31T07:55:26;4.80;;;2.03;;
24279;SDS011;12395;42.808;23.408;2023-08-31T07:57:51;4.95;;;1.70;;
24279;SDS011;12395;42.808;23.408;2023-08-31T08:00:18;4.00;;;2.10;;
24279;SDS011;12395;42.808;23.408;2023-08-31T08:02:47;6.43;;;1.98;;
24279;SDS011;12395;42.808;23.408;2023-08-31T08:05:12;3.92;;;1.50;;
24279;SDS011;12395;42.808;23.408;2023-08-31T08:07:37;4.30;;;1.83;;
24279;SDS011;12395;42.808;23.408;2023-08-31T08:10:03;2.60;;;1.40;;
24279;SDS011;12395;42.808;23.408;2023-08-31T08:12:36;3.78;;;1.50;;
24279;SDS011;12395;42.808;23.408;2023-08-31T08:15:10;5.53;;;1.60;;
24279;SDS011;12395;42.808;23.408;2023-08-31T08:17:35;3.78;;;1.40;;
24279;SDS011;12395;42.808;23.408;2023-08-31T08:20:01;3.50;;;1.58;;
24279;SDS011;12395;42.808;23.408;2023-08-31T08:22:27;3.90;;;1.60;;
24279;SDS011;12395;42.808;23.408;2023-08-31T08:24:58;4.65;;;1.60;;
24279;SDS011;12395;42.808;23.408;2023-08-31T08:27:26;3.80;;;1.60;;
24279;SDS011;12395;42.808;23.408;2023-08-31T08:29:56;4.38;;;1.80;;
24279;SDS011;12395;42.808;23.408;2023-08-31T08:32:22;4.68;;;1.85;;
24279;SDS011;12395;42.808;23.408;2023-08-31T08:34:47;5.18;;;1.92;;
24279;SDS011;12395;42.808;23.408;2023-08-31T08:37:12;4.97;;;1.80;;
24279;SDS011;12395;42.808;23.408;2023-08-31T08:39:38;4.18;;;1.70;;
24279;SDS011;12395;42.808;23.408;2023-08-31T08:42:04;5.20;;;1.70;;
24279;SDS011;12395;42.808;23.408;2023-08-31T08:44:31;3.55;;;1.75;;
24279;SDS011;12395;42.808;23.408;2023-08-31T08:46:58;3.20;;;1.75;;
24279;SDS011;12395;42.808;23.408;2023-08-31T08:49:24;5.55;;;2.10;;
24279;SDS011;12395;42.808;23.408;2023-08-31T08:51:51;4.80;;;1.70;;
24279;SDS011;12395;42.808;23.408;2023-08-31T08:54:21;7.57;;;2.00;;
24279;SDS011;12395;42.808;23.408;2023-08-31T08:56:47;5.93;;;2.05;;
24279;SDS011;12395;42.808;23.408;2023-08-31T08:59:13;4.65;;;2.45;;
24279;SDS011;12395;42.808;23.408;2023-08-31T09:01:39;3.97;;;2.17;;
24279;SDS011;12395;42.808;23.408;2023-08-31T09:04:05;4.53;;;2.20;;
24279;SDS011;12395;42.808;23.408;2023-08-31T09:06:31;6.10;;;2.50;;
24279;SDS011;12395;42.808;23.408;2023-08-31T09:08:57;3.80;;;2.05;;
24279;SDS011;12395;42.808;23.408;2023-08-31T09:11:22;6.18;;;2.30;;
24279;SDS011;12395;42.808;23.408;2023-08-31T09:13:49;6.78;;;2.20;;
24279;SDS011;12395;42.808;23.408;2023-08-31T09:16:33;6.28;;;2.53;;
24279;SDS011;12395;42.808;23.408;2023-08-31T09:18:59;6.28;;;2.58;;
24279;SDS011;12395;42.808;23.408;2023-08-31T09:21:37;5.45;;;2.28;;
24279;SDS011;12395;42.808;23.408;2023-08-31T09:24:05;5.80;;;2.08;;
24279;SDS011;12395;42.808;23.408;2023-08-31T09:26:37;4.65;;;2.40;;
24279;SDS011;12395;42.808;23.408;2023-08-31T09:29:04;3.88;;;2.40;;
24279;SDS011;12395;42.808;23.408;2023-08-31T09:31:30;6.22;;;2.78;;
24279;SDS011;12395;42.808;23.408;2023-08-31T09:33:56;7.05;;;2.15;;
24279;SDS011;12395;42.808;23.408;2023-08-31T09:36:21;5.40;;;2.33;;
24279;SDS011;12395;42.808;23.408;2023-08-31T09:38:51;5.65;;;2.40;;
24279;SDS011;12395;42.808;23.408;2023-08-31T09:41:16;4.32;;;2.10;;
24279;SDS011;12395;42.808;23.408;2023-08-31T09:43:42;8.57;;;2.50;;
24279;SDS011;12395;42.808;23.408;2023-08-31T09:46:08;6.47;;;2.28;;
24279;SDS011;12395;42.808;23.408;2023-08-31T09:48:38;5.90;;;2.55;;
24279;SDS011;12395;42.808;23.408;2023-08-31T09:51:05;5.22;;;2.42;;
24279;SDS011;12395;42.808;23.408;2023-08-31T09:53:35;6.72;;;2.47;;
24279;SDS011;12395;42.808;23.408;2023-08-31T09:56:02;4.28;;;2.30;;
24279;SDS011;12395;42.808;23.408;2023-08-31T09:58:30;4.65;;;2.30;;
24279;SDS011;12395;42.808;23.408;2023-08-31T10:00:56;4.30;;;2.38;;
24279;SDS011;12395;42.808;23.408;2023-08-31T10:03:22;5.65;;;2.50;;
24279;SDS011;12395;42.808;23.408;2023-08-31T10:05:48;5.90;;;2.65;;
24279;SDS011;12395;42.808;23.408;2023-08-31T10:08:15;6.78;;;2.40;;
24279;SDS011;12395;42.808;23.408;2023-08-31T10:10:41;4.70;;;2.60;;
24279;SDS011;12395;42.808;23.408;2023-08-31T10:13:06;5.10;;;2.40;;
24279;SDS011;12395;42.808;23.408;2023-08-31T10:15:34;4.40;;;2.50;;
24279;SDS011;12395;42.808;23.408;2023-08-31T10:18:01;4.65;;;2.47;;
24279;SDS011;12395;42.808;23.408;2023-08-31T10:20:30;5.38;;;2.65;;
24279;SDS011;12395;42.808;23.408;2023-08-31T10:23:06;6.47;;;2.60;;
24279;SDS011;12395;42.808;23.408;2023-08-31T10:28:21;5.63;;;2.60;;
24279;SDS011;12395;42.808;23.408;2023-08-31T10:33:57;3.78;;;2.13;;
24279;SDS011;12395;42.808;23.408;2023-08-31T10:36:38;5.07;;;2.50;;
24279;SDS011;12395;42.808;23.408;2023-08-31T10:41:37;5.20;;;2.50;;
24279;SDS011;12395;42.808;23.408;2023-08-31T10:44:03;5.80;;;2.60;;
24279;SDS011;12395;42.808;23.408;2023-08-31T10:46:53;6.10;;;2.55;;
24279;SDS011;12395;42.808;23.408;2023-08-31T10:49:22;5.75;;;2.72;;
24279;SDS011;12395;42.808;23.408;2023-08-31T10:52:14;6.28;;;2.53;;
24279;SDS011;12395;42.808;23.408;2023-08-31T10:54:45;6.47;;;3.17;;
24279;SDS011;12395;42.808;23.408;2023-08-31T10:57:11;5.40;;;2.75;;
24279;SDS011;12395;42.808;23.408;2023-08-31T11:00:11;6.43;;;2.72;;
24279;SDS011;12395;42.808;23.408;2023-08-31T11:05:09;5.93;;;2.70;;
24279;SDS011;12395;42.808;23.408;2023-08-31T11:07:42;4.60;;;2.60;;
24279;SDS011;12395;42.808;23.408;2023-08-31T11:12:45;5.70;;;2.63;;
24279;SDS011;12395;42.808;23.408;2023-08-31T11:15:12;5.68;;;3.10;;
24279;SDS011;12395;42.808;23.408;2023-08-31T11:17:39;5.28;;;2.50;;
24279;SDS011;12395;42.808;23.408;2023-08-31T11:20:06;5.75;;;2.80;;
24279;SDS011;12395;42.808;23.408;2023-08-31T11:22:34;4.70;;;2.60;;
24279;SDS011;12395;42.808;23.408;2023-08-31T11:25:03;5.10;;;2.50;;
24279;SDS011;12395;42.808;23.408;2023-08-31T11:27:28;5.20;;;2.30;;
24279;SDS011;12395;42.808;23.408;2023-08-31T11:29:54;5.03;;;2.17;;
24279;SDS011;12395;42.808;23.408;2023-08-31T11:32:22;5.30;;;2.25;;
24279;SDS011;12395;42.808;23.408;2023-08-31T11:34:48;5.43;;;2.30;;
24279;SDS011;12395;42.808;23.408;2023-08-31T11:37:15;5.20;;;2.30;;
24279;SDS011;12395;42.808;23.408;2023-08-31T11:39:41;6.63;;;2.35;;
24279;SDS011;12395;42.808;23.408;2023-08-31T11:42:08;4.22;;;2.15;;
24279;SDS011;12395;42.808;23.408;2023-08-31T11:44:33;4.45;;;2.30;;
24279;SDS011;12395;42.808;23.408;2023-08-31T11:46:59;4.10;;;2.20;;
24279;SDS011;12395;42.808;23.408;2023-08-31T11:49:26;7.78;;;2.38;;
24279;SDS011;12395;42.808;23.408;2023-08-31T11:51:52;8.50;;;2.53;;
24279;SDS011;12395;42.808;23.408;2023-08-31T11:56:45;5.80;;;2.10;;
24279;SDS011;12395;42.808;23.408;2023-08-31T11:59:16;4.57;;;1.75;;
24279;SDS011;12395;42.808;23.408;2023-08-31T12:01:42;3.75;;;2.03;;
24279;SDS011;12395;42.808;23.408;2023-08-31T12:04:21;3.55;;;1.90;;
24279;SDS011;12395;42.808;23.408;2023-08-31T12:06:53;4.05;;;2.13;;
24279;SDS011;12395;42.808;23.408;2023-08-31T12:09:27;6.07;;;2.05;;
24279;SDS011;12395;42.808;23.408;2023-08-31T12:11:53;3.45;;;2.00;;
24279;SDS011;12395;42.808;23.408;2023-08-31T12:14:22;3.20;;;1.90;;
24279;SDS011;12395;42.808;23.408;2023-08-31T12:16:49;4.95;;;1.88;;
24279;SDS011;12395;42.808;23.408;2023-08-31T12:19:15;4.13;;;2.00;;
24279;SDS011;12395;42.808;23.408;2023-08-31T12:21:42;3.58;;;1.80;;
24279;SDS011;12395;42.808;23.408;2023-08-31T12:24:09;3.78;;;1.92;;
24279;SDS011;12395;42.808;23.408;2023-08-31T12:26:35;4.03;;;1.85;;
24279;SDS011;12395;42.808;23.408;2023-08-31T12:29:01;5.97;;;2.30;;
24279;SDS011;12395;42.808;23.408;2023-08-31T12:31:29;3.40;;;2.10;;
24279;SDS011;12395;42.808;23.408;2023-08-31T12:33:54;3.83;;;1.88;;
24279;SDS011;12395;42.808;23.408;2023-08-31T12:36:20;3.53;;;1.85;;
24279;SDS011;12395;42.808;23.408;2023-08-31T12:38:45;5.38;;;1.92;;
24279;SDS011;12395;42.808;23.408;2023-08-31T12:41:11;3.55;;;1.80;;
24279;SDS011;12395;42.808;23.408;2023-08-31T12:43:37;4.97;;;1.90;;
24279;SDS011;12395;42.808;23.408;2023-08-31T12:46:03;3.77;;;1.80;;
24279;SDS011;12395;42.808;23.408;2023-08-31T12:48:31;5.05;;;2.22;;
24279;SDS011;12395;42.808;23.408;2023-08-31T12:50:57;3.60;;;1.80;;
24279;SDS011;12395;42.808;23.408;2023-08-31T12:53:23;4.90;;;1.98;;
24279;SDS011;12395;42.808;23.408;2023-08-31T12:55:49;4.43;;;1.88;;
24279;SDS011;12395;42.808;23.408;2023-08-31T12:58:15;6.85;;;2.17;;
24279;SDS011;12395;42.808;23.408;2023-08-31T13:00:43;5.03;;;1.92;;
24279;SDS011;12395;42.808;23.408;2023-08-31T13:03:11;4.45;;;1.92;;
24279;SDS011;12395;42.808;23.408;2023-08-31T13:05:39;4.40;;;2.20;;
24279;SDS011;12395;42.808;23.408;2023-08-31T13:08:07;3.63;;;1.80;;
24279;SDS011;12395;42.808;23.408;2023-08-31T13:10:34;3.35;;;1.80;;
24279;SDS011;12395;42.808;23.408;2023-08-31T13:13:00;3.65;;;1.98;;
24279;SDS011;12395;42.808;23.408;2023-08-31T13:15:25;4.07;;;1.77;;
24279;SDS011;12395;42.808;23.408;2023-08-31T13:17:51;3.75;;;1.75;;
24279;SDS011;12395;42.808;23.408;2023-08-31T13:20:16;5.20;;;1.95;;
24279;SDS011;12395;42.808;23.408;2023-08-31T13:22:42;3.03;;;1.60;;
24279;SDS011;12395;42.808;23.408;2023-08-31T13:25:07;3.78;;;2.00;;
24279;SDS011;12395;42.808;23.408;2023-08-31T13:27:33;3.25;;;1.88;;
24279;SDS011;12395;42.808;23.408;2023-08-31T13:29:58;3.25;;;1.77;;
24279;SDS011;12395;42.808;23.408;2023-08-31T13:32:24;4.18;;;1.85;;
24279;SDS011;12395;42.808;23.408;2023-08-31T13:34:50;6.30;;;2.13;;
24279;SDS011;12395;42.808;23.408;2023-08-31T13:37:16;5.13;;;1.95;;
24279;SDS011;12395;42.808;23.408;2023-08-31T13:39:41;5.20;;;1.83;;
24279;SDS011;12395;42.808;23.408;2023-08-31T13:42:06;3.10;;;1.48;;
24279;SDS011;12395;42.808;23.408;2023-08-31T13:44:32;3.60;;;1.70;;
24279;SDS011;12395;42.808;23.408;2023-08-31T13:46:58;4.32;;;1.83;;
24279;SDS011;12395;42.808;23.408;2023-08-31T13:49:24;3.97;;;1.88;;
24279;SDS011;12395;42.808;23.408;2023-08-31T13:51:49;4.45;;;1.83;;
24279;SDS011;12395;42.808;23.408;2023-08-31T13:54:15;3.58;;;1.80;;
24279;SDS011;12395;42.808;23.408;2023-08-31T13:56:40;3.95;;;1.90;;
24279;SDS011;12395;42.808;23.408;2023-08-31T13:59:06;5.25;;;1.80;;
24279;SDS011;12395;42.808;23.408;2023-08-31T14:01:31;3.60;;;1.73;;
24279;SDS011;12395;42.808;23.408;2023-08-31T14:03:57;4.25;;;1.60;;
24279;SDS011;12395;42.808;23.408;2023-08-31T14:06:22;2.90;;;1.75;;
24279;SDS011;12395;42.808;23.408;2023-08-31T14:08:48;4.75;;;1.98;;
24279;SDS011;12395;42.808;23.408;2023-08-31T14:11:14;3.65;;;1.90;;
24279;SDS011;12395;42.808;23.408;2023-08-31T14:13:39;4.80;;;1.90;;
24279;SDS011;12395;42.808;23.408;2023-08-31T14:16:06;4.40;;;1.90;;
24279;SDS011;12395;42.808;23.408;2023-08-31T14:18:32;7.10;;;1.90;;
24279;SDS011;12395;42.808;23.408;2023-08-31T14:20:57;4.28;;;1.95;;
24279;SDS011;12395;42.808;23.408;2023-08-31T14:23:24;4.10;;;1.80;;
24279;SDS011;12395;42.808;23.408;2023-08-31T14:25:50;5.00;;;1.90;;
24279;SDS011;12395;42.808;23.408;2023-08-31T14:28:15;3.05;;;1.80;;
24279;SDS011;12395;42.808;23.408;2023-08-31T14:30:40;5.50;;;2.00;;
24279;SDS011;12395;42.808;23.408;2023-08-31T14:33:06;5.50;;;2.03;;
24279;SDS011;12395;42.808;23.408;2023-08-31T14:35:31;5.22;;;2.08;;
24279;SDS011;12395;42.808;23.408;2023-08-31T14:37:57;6.93;;;2.10;;
24279;SDS011;12395;42.808;23.408;2023-08-31T14:40:25;4.25;;;1.95;;
24279;SDS011;12395;42.808;23.408;2023-08-31T14:42:51;5.07;;;2.10;;
24279;SDS011;12395;42.808;23.408;2023-08-31T14:45:17;3.72;;;1.90;;
24279;SDS011;12395;42.808;23.408;2023-08-31T14:47:43;3.67;;;1.92;;
24279;SDS011;12395;42.808;23.408;2023-08-31T14:50:08;7.60;;;2.10;;
24279;SDS011;12395;42.808;23.408;2023-08-31T14:52:35;5.22;;;2.10;;
24279;SDS011;12395;42.808;23.408;2023-08-31T14:55:00;5.55;;;1.90;;